Time;durP1;ratioP1;P1;durP2;ratioP2;P2;SDS_P1;SDS_P2;PMS_P1;PMS_P2;Temp;Humidity;BMP_temperature;BMP_pressure;BME280_temperature;BME280_humidity;BME280_pressure;Samples;Min_cycle;Max_cycle;Signal;HPM_P1;HPM_P2
2022/05/14 00:02:51;;;;;;;;;16.25;15.00;;;;;16.76;54.47;100900.38;146613;580;46020;-69
2022/05/14 00:05:44;;;;;;;;;13.75;13.25;;;;;16.74;54.29;100900.31;146612;606;46012;-74
2022/05/14 00:08:36;;;;;;;;;17.50;15.00;;;;;16.70;53.57;100895.84;146614;570;46020;-73
2022/05/14 00:14:38;;;;;;;;;15.00;13.50;;;;;16.76;53.83;100893.44;146615;572;46020;-70
2022/05/14 00:17:31;;;;;;;;;16.75;15.25;;;;;16.82;53.68;100888.37;146612;706;46016;-69
2022/05/14 00:20:25;;;;;;;;;14.75;14.00;;;;;16.90;54.04;100885.09;146612;576;46010;-71
2022/05/14 00:23:17;;;;;;;;;18.50;15.00;;;;;16.87;54.73;100878.03;146611;636;46017;-67
2022/05/14 00:26:10;;;;;;;;;14.75;13.25;;;;;16.79;54.36;100877.81;146611;625;47010;-68
2022/05/14 00:29:03;;;;;;;;;15.75;14.75;;;;;16.76;54.24;100876.81;146612;614;46016;-68
2022/05/14 00:31:55;;;;;;;;;15.75;13.50;;;;;16.75;54.72;100878.56;146615;564;46010;-70
2022/05/14 00:34:47;;;;;;;;;12.75;11.50;;;;;16.71;53.78;100884.53;146611;598;47012;-68
2022/05/14 00:37:40;;;;;;;;;14.75;13.00;;;;;16.68;54.27;100897.53;146609;683;46021;-69
2022/05/14 00:40:37;;;;;;;;;17.00;15.00;;;;;16.65;54.66;100886.97;146612;603;46016;-69
2022/05/14 00:43:29;;;;;;;;;17.50;16.00;;;;;16.63;54.39;100902.63;146616;593;46020;-69
2022/05/14 00:46:45;;;;;;;;;17.75;17.75;;;;;16.63;55.15;100902.63;146611;582;46016;-69
2022/05/14 00:49:39;;;;;;;;;16.00;14.75;;;;;16.58;55.53;100899.00;146615;744;46020;-69
2022/05/14 00:52:32;;;;;;;;;20.00;16.75;;;;;16.53;56.45;100900.56;146612;679;46014;-67
2022/05/14 00:55:24;;;;;;;;;19.25;17.75;;;;;16.49;56.07;100901.34;146612;586;46020;-68
2022/05/14 00:59:06;;;;;;;;;19.00;16.00;;;;;16.48;54.70;100912.66;146614;564;46016;-67
2022/05/14 01:02:00;;;;;;;;;18.25;15.75;;;;;16.51;56.61;100912.75;146614;584;46020;-68
2022/05/14 01:04:52;;;;;;;;;19.50;18.25;;;;;16.53;57.24;100915.37;146611;650;46914;-67
2022/05/14 01:07:45;;;;;;;;;21.50;19.75;;;;;16.53;57.54;100913.66;146614;613;46021;-69
2022/05/14 01:10:44;;;;;;;;;19.75;18.50;;;;;16.54;57.73;100925.00;146613;603;46016;-66
2022/05/14 01:13:37;;;;;;;;;16.25;15.75;;;;;16.55;57.13;100925.06;146614;583;46020;-68
2022/05/14 01:16:30;;;;;;;;;14.75;14.75;;;;;16.53;59.38;100931.09;146612;613;46014;-66
2022/05/14 01:19:21;;;;;;;;;15.50;13.25;;;;;16.43;59.81;100919.47;146615;571;46010;-66
2022/05/14 01:22:33;;;;;;;;;17.25;16.25;;;;;16.30;57.22;100917.31;146613;589;46017;-67
2022/05/14 01:28:49;;;;;;;;;17.50;15.50;;;;;16.07;59.07;100909.62;146608;576;46016;-66
2022/05/14 01:31:42;;;;;;;;;19.75;15.00;;;;;15.99;57.76;100913.72;146614;596;46020;-70
2022/05/14 01:34:38;;;;;;;;;17.25;15.75;;;;;15.98;57.34;100919.81;146611;588;46016;-70
2022/05/14 01:37:30;;;;;;;;;15.00;15.00;;;;;16.04;57.56;100919.97;146614;577;46021;-71
2022/05/14 01:40:23;;;;;;;;;17.50;15.75;;;;;16.11;57.33;100906.28;146611;602;46016;-72
2022/05/14 01:43:15;;;;;;;;;19.00;15.00;;;;;16.22;57.37;100905.72;146614;607;46021;-72
2022/05/14 01:46:07;;;;;;;;;17.75;17.75;;;;;16.29;57.28;100907.66;146612;693;46014;-72
2022/05/14 01:48:59;;;;;;;;;15.50;15.25;;;;;16.38;56.18;100910.56;146613;655;46013;-70
2022/05/14 01:51:52;;;;;;;;;16.75;16.75;;;;;16.43;56.89;100909.00;146613;600;46016;-70
2022/05/14 01:54:44;;;;;;;;;15.75;15.75;;;;;16.43;56.75;100914.22;146613;586;46020;-69
2022/05/14 01:57:36;;;;;;;;;19.25;17.75;;;;;16.39;57.73;100909.75;146611;615;47012;-70
2022/05/14 02:00:28;;;;;;;;;23.25;20.50;;;;;16.30;58.20;100901.63;146614;593;46020;-69
2022/05/14 02:03:21;;;;;;;;;18.00;17.25;;;;;16.19;57.88;100903.00;146610;660;46913;-70
2022/05/14 02:06:13;;;;;;;;;18.25;16.50;;;;;16.14;57.29;100895.03;146614;658;46011;-71
2022/05/14 02:09:10;;;;;;;;;17.00;16.50;;;;;16.10;56.78;100896.62;146614;575;46016;-69
2022/05/14 02:12:03;;;;;;;;;20.75;15.75;;;;;16.12;56.06;100894.97;146613;611;46010;-69
2022/05/14 02:14:55;;;;;;;;;16.50;16.50;;;;;16.16;56.03;100888.09;146604;574;47012;-69
2022/05/14 02:17:47;;;;;;;;;18.25;16.25;;;;;16.22;56.32;100892.62;146614;577;47010;-69
2022/05/14 02:20:39;;;;;;;;;18.00;16.00;;;;;16.25;57.06;100892.72;146611;571;46016;-69
2022/05/14 02:23:31;;;;;;;;;16.75;16.75;;;;;16.24;56.47;100896.19;146614;585;46010;-69
2022/05/14 02:26:24;;;;;;;;;23.00;20.50;;;;;16.23;56.09;100907.47;146611;654;46913;-71
2022/05/14 02:29:16;;;;;;;;;17.25;16.25;;;;;16.17;58.06;100903.84;146616;581;46021;-70
2022/05/14 02:32:09;;;;;;;;;20.25;19.25;;;;;15.16;57.71;100740.22;146612;593;47012;-69
2022/05/14 02:35:01;;;;;;;;;19.50;17.00;;;;;15.96;57.87;100890.09;146614;647;47010;-70
2022/05/14 02:37:54;;;;;;;;;21.25;19.00;;;;;15.90;57.05;100885.56;146612;569;46016;-71
2022/05/14 02:40:47;;;;;;;;;19.75;18.75;;;;;15.92;57.46;100886.50;146615;609;46020;-68
2022/05/14 02:43:39;;;;;;;;;17.50;17.50;;;;;15.97;57.09;100885.75;146611;597;46014;-70
2022/05/14 02:46:31;;;;;;;;;18.50;18.50;;;;;15.97;57.43;100876.16;146614;595;46010;-68
2022/05/14 02:49:23;;;;;;;;;21.00;20.00;;;;;15.97;57.44;100884.00;146613;611;46016;-68
2022/05/14 02:52:16;;;;;;;;;21.50;20.00;;;;;15.96;57.88;100878.75;146613;567;46020;-69
2022/05/14 02:55:09;;;;;;;;;18.25;18.25;;;;;16.03;56.93;100888.56;146611;569;46016;-69
2022/05/14 02:58:01;;;;;;;;;21.00;19.00;;;;;16.08;56.83;100890.47;146614;648;46010;-68
2022/05/14 03:00:53;;;;;;;;;23.00;21.00;;;;;16.15;57.41;100891.56;146612;588;46016;-69
2022/05/14 03:03:45;;;;;;;;;21.50;19.00;;;;;16.20;57.78;100889.06;146616;611;46010;-68
2022/05/14 03:06:37;;;;;;;;;23.25;19.00;;;;;16.22;58.02;100882.16;146613;660;46017;-69
2022/05/14 03:09:30;;;;;;;;;21.00;20.00;;;;;16.22;58.46;100885.66;146616;597;46010;-69
2022/05/14 03:12:23;;;;;;;;;21.00;20.00;;;;;16.21;57.92;100890.87;146610;584;46017;-68
2022/05/14 03:15:17;;;;;;;;;20.75;18.50;;;;;16.20;59.67;100894.31;146616;576;46010;-69
2022/05/14 03:18:09;;;;;;;;;19.75;17.25;;;;;16.12;60.82;100891.47;146611;579;47012;-68
2022/05/14 03:21:01;;;;;;;;;23.25;21.00;;;;;16.06;60.73;100884.31;146612;740;46021;-69
2022/05/14 03:23:53;;;;;;;;;22.75;22.75;;;;;16.03;61.45;100885.94;146613;574;46012;-68
2022/05/14 03:26:46;;;;;;;;;22.75;21.00;;;;;16.03;60.36;100899.91;146614;593;46020;-69
2022/05/14 03:29:39;;;;;;;;;22.00;20.75;;;;;16.03;60.39;100891.19;146609;563;46032;-70
2022/05/14 03:32:31;;;;;;;;;21.75;18.00;;;;;16.04;59.69;100892.94;146617;574;46010;-69
2022/05/14 03:35:24;;;;;;;;;20.50;17.50;;;;;16.10;59.78;100896.62;146611;597;46026;-69
2022/05/14 03:38:16;;;;;;;;;24.00;19.75;;;;;16.18;58.97;100896.88;146614;563;46010;-70
2022/05/14 03:41:09;;;;;;;;;18.75;17.50;;;;;15.30;58.75;100736.34;146613;594;46016;-69
2022/05/14 03:44:01;;;;;;;;;19.00;19.00;;;;;16.33;58.75;100909.56;146614;590;46010;-70
2022/05/14 03:46:53;;;;;;;;;19.75;17.00;;;;;16.38;58.47;100905.34;146612;571;46012;-70
2022/05/14 03:49:45;;;;;;;;;20.75;19.75;;;;;16.40;58.91;100914.13;146613;587;46011;-69
2022/05/14 03:52:37;;;;;;;;;21.25;18.75;;;;;16.39;59.67;100928.06;146614;566;46034;-67
2022/05/14 03:55:30;;;;;;;;;20.75;19.25;;;;;16.31;58.54;100924.31;146617;581;45020;-68
2022/05/14 03:58:22;;;;;;;;;22.50;21.00;;;;;16.31;58.73;100938.28;146611;682;46016;-69
2022/05/14 04:01:14;;;;;;;;;19.25;17.50;;;;;16.31;59.04;100940.03;146613;570;46020;-69
2022/05/14 04:04:07;;;;;;;;;22.25;19.25;;;;;16.30;58.64;100954.84;146611;587;46017;-69
2022/05/14 04:06:59;;;;;;;;;21.25;17.75;;;;;16.30;59.08;100946.09;146614;602;46010;-68
2022/05/14 04:09:51;;;;;;;;;17.50;16.75;;;;;16.31;59.38;100948.75;146612;603;46016;-67
2022/05/14 04:12:44;;;;;;;;;21.25;19.25;;;;;15.35;60.38;100778.28;146614;595;46021;-69
2022/05/14 04:15:36;;;;;;;;;17.00;17.00;;;;;16.30;59.72;100949.59;146612;573;46016;-68
2022/05/14 04:18:28;;;;;;;;;20.50;19.00;;;;;16.33;60.00;100949.69;146614;580;46020;-66
2022/05/14 04:21:20;;;;;;;;;19.00;18.50;;;;;16.42;59.14;100953.44;146612;610;46012;-66
2022/05/14 04:24:13;;;;;;;;;9.00;9.00;;;;;16.53;58.80;100947.69;146614;601;46020;-66
2022/05/14 04:27:05;;;;;;;;;19.00;18.00;;;;;16.63;59.35;100941.91;146620;569;46017;-66
2022/05/14 04:29:57;;;;;;;;;18.75;18.25;;;;;16.71;61.77;100946.47;146616;589;46010;-69
2022/05/14 04:32:49;;;;;;;;;18.75;17.50;;;;;16.76;61.00;100945.81;146614;570;46015;-70
2022/05/14 04:35:41;;;;;;;;;20.25;19.50;;;;;16.90;59.76;100948.81;146616;564;46020;-70
2022/05/14 04:38:33;;;;;;;;;21.00;18.00;;;;;17.09;60.00;100943.25;146612;598;46034;-69
2022/05/14 04:41:30;;;;;;;;;18.50;17.25;;;;;17.31;60.19;100938.63;146613;623;46011;-68
2022/05/14 04:44:22;;;;;;;;;21.00;19.25;;;;;17.60;59.77;100938.50;146611;641;46014;-68
2022/05/14 04:47:20;;;;;;;;;19.25;18.00;;;;;17.89;59.20;100944.53;146610;699;46020;-68
2022/05/14 04:50:14;;;;;;;;;21.75;20.75;;;;;18.20;58.29;100941.81;146610;675;47012;-68
2022/05/14 04:53:06;;;;;;;;;18.25;15.75;;;;;18.45;58.07;100945.87;146613;575;46014;-68
2022/05/14 04:55:58;;;;;;;;;22.50;18.50;;;;;18.67;57.11;100943.72;146611;584;46012;-70
2022/05/14 04:58:51;;;;;;;;;20.50;18.25;;;;;18.90;55.92;100939.00;146613;650;46010;-68
2022/05/14 05:03:16;;;;;;;;;21.75;21.25;;;;;19.13;55.99;100948.25;146610;570;46016;-69
2022/05/14 05:04:55;;;;;;;;;22.00;20.00;;;;;19.38;55.69;100944.34;146614;564;46021;-68
2022/05/14 05:07:48;;;;;;;;;21.00;19.25;;;;;19.62;53.98;100954.44;146611;626;46034;-69
2022/05/14 05:10:40;;;;;;;;;21.75;20.00;;;;;19.84;53.66;100944.28;146614;570;46010;-68
2022/05/14 05:13:35;;;;;;;;;22.25;19.75;;;;;20.01;53.23;100942.84;146610;586;46016;-70
2022/05/14 05:16:27;;;;;;;;;18.00;18.00;;;;;20.21;53.04;100951.03;146613;601;46010;-70
2022/05/14 05:19:19;;;;;;;;;20.50;17.25;;;;;20.42;51.72;100944.34;146611;572;46016;-70
2022/05/14 05:22:11;;;;;;;;;21.25;17.00;;;;;20.63;51.17;100944.66;146614;575;46010;-70
2022/05/14 05:25:03;;;;;;;;;19.75;18.75;;;;;20.86;50.68;100946.72;146611;612;46017;-67
2022/05/14 05:27:55;;;;;;;;;18.00;16.50;;;;;21.04;49.81;100941.69;146617;754;45048;-68
2022/05/14 05:30:48;;;;;;;;;17.75;16.50;;;;;21.17;49.99;100940.06;146613;593;46016;-71
2022/05/14 05:33:40;;;;;;;;;16.00;14.75;;;;;21.32;49.91;100934.97;146614;639;46021;-71
2022/05/14 05:36:32;;;;;;;;;15.75;15.00;;;;;21.47;49.00;100938.69;146605;565;47913;-69
2022/05/14 05:39:24;;;;;;;;;16.25;15.75;;;;;21.49;49.15;100944.81;146613;650;47010;-67
2022/05/14 05:42:17;;;;;;;;;18.50;16.75;;;;;21.49;50.07;100943.06;146613;579;46016;-72
2022/05/14 05:45:09;;;;;;;;;16.75;16.00;;;;;21.59;48.65;100941.44;146613;576;46020;-70
2022/05/14 05:48:02;;;;;;;;;20.75;17.75;;;;;21.71;48.39;100949.44;146613;590;46012;-72
2022/05/14 05:50:53;;;;;;;;;19.25;18.50;;;;;21.79;47.84;100950.41;146614;563;46010;-68
2022/05/14 05:57:00;;;;;;;;;21.00;19.25;;;;;22.02;49.57;100949.69;146614;595;46010;-72
2022/05/14 05:59:52;;;;;;;;;22.75;22.00;;;;;22.07;49.42;100954.16;146613;588;46012;-67
2022/05/14 06:02:44;;;;;;;;;20.75;20.25;;;;;22.17;49.77;100948.97;146615;658;46011;-66
2022/05/14 06:05:36;;;;;;;;;26.25;21.50;;;;;22.17;48.53;100956.91;146611;606;46016;-67
2022/05/14 06:08:27;;;;;;;;;24.25;21.50;;;;;22.07;47.61;100956.78;146615;605;46020;-66
2022/05/14 06:11:21;;;;;;;;;23.25;22.00;;;;;20.35;47.68;100664.22;146612;600;46016;-69
2022/05/14 06:14:15;;;;;;;;;26.00;23.50;;;;;22.10;48.03;100946.25;146613;586;46020;-73
2022/05/14 06:17:08;;;;;;;;;23.00;21.75;;;;;22.21;47.56;100949.03;146611;688;46013;-73
2022/05/14 06:19:59;;;;;;;;;20.50;20.50;;;;;22.21;49.32;100942.84;146615;643;47014;-74
2022/05/14 06:22:52;;;;;;;;;21.50;19.75;;;;;22.26;50.14;100947.28;146635;611;45012;-74
2022/05/14 06:25:44;;;;;;;;;23.00;19.75;;;;;22.36;49.82;100943.81;146633;592;46021;-75
2022/05/14 06:28:36;;;;;;;;;17.75;15.50;;;;;22.51;48.29;100940.41;146635;575;45016;-77
2022/05/14 06:31:28;;;;;;;;;19.50;17.75;;;;;22.67;49.07;100953.69;146637;628;45010;-77
2022/05/14 06:34:20;;;;;;;;;21.50;20.00;;;;;22.78;49.50;100950.25;146632;620;45915;-73
2022/05/14 06:37:13;;;;;;;;;20.75;17.25;;;;;22.94;49.29;100955.63;146634;564;45010;-73
2022/05/14 06:40:05;;;;;;;;;20.25;17.25;;;;;23.10;49.34;100949.50;146636;579;44041;-70
2022/05/14 06:42:57;;;;;;;;;22.50;19.75;;;;;23.28;49.50;100951.34;146634;649;45010;-70
2022/05/14 06:45:49;;;;;;;;;20.00;18.25;;;;;23.42;49.38;100957.53;146636;577;45016;-70
2022/05/14 06:48:42;;;;;;;;;20.25;16.50;;;;;23.63;49.26;100954.06;146634;582;45021;-71
2022/05/14 06:51:37;;;;;;;;;19.25;17.75;;;;;23.80;48.56;100959.41;146634;602;45016;-72
2022/05/14 06:54:29;;;;;;;;;18.00;16.00;;;;;23.86;49.74;100951.47;146638;575;45010;-71
2022/05/14 06:57:22;;;;;;;;;19.00;18.00;;;;;23.90;49.27;100944.41;146632;623;45914;-71
2022/05/14 07:00:15;;;;;;;;;16.75;14.50;;;;;23.89;48.87;100946.16;146635;655;45020;-71
2022/05/14 07:09:31;;;;;;;;;16.75;16.75;;;;;23.92;48.94;100942.63;146636;574;44036;-71
2022/05/14 07:12:23;;;;;;;;;12.25;12.00;;;;;23.95;49.80;100956.75;146633;574;46010;-70
2022/05/14 07:15:15;;;;;;;;;17.25;16.00;;;;;24.04;49.62;100955.00;146635;573;45012;-69
2022/05/14 07:18:07;;;;;;;;;18.75;16.50;;;;;24.18;49.70;100954.09;146637;569;45021;-70
2022/05/14 07:21:00;;;;;;;;;15.00;14.50;;;;;24.33;49.21;100952.28;146624;637;47012;-70
2022/05/14 07:23:53;;;;;;;;;19.00;17.00;;;;;24.53;48.70;100958.50;146614;583;46011;-70
2022/05/14 07:26:45;;;;;;;;;16.75;16.25;;;;;24.73;47.98;100961.06;146611;619;46016;-70
2022/05/14 07:29:40;;;;;;;;;18.00;17.75;;;;;24.89;48.51;100957.50;146614;665;47010;-70
2022/05/14 07:32:32;;;;;;;;;21.00;17.50;;;;;25.09;48.00;100965.38;146612;599;46017;-70
2022/05/14 07:35:24;;;;;;;;;18.75;17.25;;;;;25.27;47.76;100959.13;146613;563;46020;-70
2022/05/14 07:38:17;;;;;;;;;18.50;17.50;;;;;25.41;47.59;100963.47;146611;621;46015;-70
2022/05/14 07:41:11;;;;;;;;;16.25;16.25;;;;;25.47;47.73;100964.31;146614;613;46021;-70
2022/05/14 07:44:06;;;;;;;;;16.50;16.50;;;;;25.51;47.06;100965.16;146613;580;46016;-70
2022/05/14 07:46:58;;;;;;;;;16.50;15.75;;;;;25.61;46.29;100961.56;146614;569;46021;-70
2022/05/14 07:49:53;;;;;;;;;20.00;17.75;;;;;25.69;46.73;100961.50;146613;626;46016;-70
2022/05/14 07:52:46;;;;;;;;;13.25;13.25;;;;;25.75;46.46;100959.69;146613;601;46020;-70
2022/05/14 07:55:38;;;;;;;;;17.00;16.25;;;;;25.84;46.68;100945.50;146611;615;46012;-69
2022/05/14 07:58:31;;;;;;;;;19.00;18.50;;;;;26.01;45.60;100948.00;146615;598;46020;-70
2022/05/14 08:01:23;;;;;;;;;18.50;17.00;;;;;26.15;45.46;100951.41;146611;574;47015;-70
2022/05/14 08:04:15;;;;;;;;;18.50;18.25;;;;;26.27;44.63;100959.28;146613;578;47010;-71
2022/05/14 08:07:08;;;;;;;;;20.75;18.00;;;;;26.32;45.17;100961.00;146609;644;47016;-70
2022/05/14 08:14:04;;;;;;;;;18.50;16.75;;;;;26.47;44.14;100961.72;146612;634;46012;-69
2022/05/14 08:17:02;;;;;;;;;19.25;17.00;;;;;26.58;44.70;100959.00;146614;609;46021;-69
2022/05/14 08:27:11;;;;;;;;;16.25;13.50;;;;;27.16;43.52;100952.09;146629;586;46014;-69
2022/05/14 08:30:03;;;;;;;;;20.50;18.25;;;;;27.26;44.41;100952.84;146632;570;46010;-69
2022/05/14 08:33:02;;;;;;;;;19.50;17.75;;;;;27.30;44.02;100954.59;146624;573;45917;-70
2022/05/14 08:36:03;;;;;;;;;19.50;17.50;;;;;27.32;44.82;100953.66;146631;572;46010;-69
2022/05/14 08:39:01;;;;;;;;;23.25;17.50;;;;;27.39;44.15;100949.13;146629;763;45017;-70
2022/05/14 08:42:04;;;;;;;;;16.50;15.50;;;;;27.10;42.29;100918.44;146627;625;45010;-69
2022/05/14 08:45:02;;;;;;;;;19.25;17.00;;;;;27.42;43.98;100953.53;146627;572;45016;-70
2022/05/14 08:48:09;;;;;;;;;18.50;17.50;;;;;27.33;42.07;100965.19;146630;566;46010;-69
2022/05/14 08:51:11;;;;;;;;;18.00;17.00;;;;;27.15;43.60;100964.53;146631;652;45032;-69
2022/05/14 08:54:04;;;;;;;;;17.25;15.00;;;;;27.07;43.50;100963.75;146625;609;46010;-69
2022/05/14 08:57:18;;;;;;;;;18.25;17.25;;;;;27.15;43.84;100959.22;146633;564;46016;-69
2022/05/14 09:00:11;;;;;;;;;19.25;17.25;;;;;27.21;43.02;100960.03;146630;616;46010;-69
2022/05/14 09:03:03;;;;;;;;;18.75;16.50;;;;;27.25;42.65;100959.09;146628;567;46012;-68
2022/05/14 09:06:03;;;;;;;;;18.75;17.75;;;;;27.22;42.26;100962.66;146635;584;45010;-74
2022/05/14 09:09:02;;;;;;;;;17.00;13.75;;;;;27.18;43.35;100964.50;146628;628;45916;-69
2022/05/14 09:12:06;;;;;;;;;19.50;17.25;;;;;27.16;42.14;100960.09;146629;570;45020;-70
2022/05/14 09:15:05;;;;;;;;;16.25;16.25;;;;;27.20;42.32;100964.50;146627;566;46012;-69
2022/05/14 09:18:12;;;;;;;;;12.50;9.75;;;;;27.23;41.72;100968.87;146633;636;45020;-68
2022/05/14 09:21:11;;;;;;;;;16.50;16.50;;;;;27.32;42.48;100963.41;146626;595;45036;-70
2022/05/14 09:24:30;;;;;;;;;19.75;17.25;;;;;27.35;42.92;100969.59;146612;582;45590;-69
2022/05/14 09:27:50;;;;;;;;;14.50;13.00;;;;;27.44;42.34;100971.22;146613;619;46012;-69
2022/05/14 09:31:01;;;;;;;;;14.00;13.50;;;;;27.49;40.74;100964.06;146611;571;46021;-69
2022/05/14 09:34:31;;;;;;;;;14.75;13.25;;;;;27.53;39.37;100968.44;146608;646;47012;-68
2022/05/14 09:37:28;;;;;;;;;15.00;13.00;;;;;27.54;40.67;100966.63;146612;636;47010;-69
2022/05/14 09:44:02;;;;;;;;;17.00;13.50;;;;;27.66;41.39;100961.12;146609;625;47021;-69
2022/05/14 09:54:52;;;;;;;;;15.50;13.75;;;;;27.89;40.26;100960.81;146608;569;46913;-69
2022/05/14 09:58:04;;;;;;;;;10.75;10.75;;;;;27.99;41.47;100959.75;146611;626;46020;-70
2022/05/14 10:09:24;;;;;;;;;17.00;15.25;;;;;28.46;39.56;100957.16;146606;649;47014;-70
2022/05/14 10:12:35;;;;;;;;;20.00;19.25;;;;;28.54;39.21;100948.13;146613;565;47020;-70
2022/05/14 10:16:05;;;;;;;;;16.50;13.75;;;;;27.83;39.94;100820.56;146606;574;47014;-70
2022/05/14 10:27:54;;;;;;;;;15.00;14.00;;;;;28.62;35.36;100944.41;146607;589;47010;-70
2022/05/14 10:31:10;;;;;;;;;14.00;13.00;;;;;28.61;39.70;100940.00;146609;665;47016;-69
2022/05/14 10:34:11;;;;;;;;;13.50;12.75;;;;;28.50;36.26;100946.41;146612;609;47022;-68
2022/05/14 10:37:08;;;;;;;;;14.75;14.00;;;;;28.40;36.88;100947.50;146610;595;47012;-68
2022/05/14 10:40:56;;;;;;;;;13.75;12.00;;;;;28.18;34.26;100943.44;146607;582;46020;-70
2022/05/14 10:44:12;;;;;;;;;11.50;10.25;;;;;27.84;35.49;100898.72;146607;634;47916;-69
2022/05/14 10:47:12;;;;;;;;;11.75;11.00;;;;;27.95;37.14;100946.50;146615;563;46010;-68
2022/05/14 10:50:16;;;;;;;;;10.75;10.00;;;;;27.77;34.41;100942.31;146610;579;46016;-70
2022/05/14 10:53:11;;;;;;;;;12.00;11.00;;;;;27.74;35.91;100942.37;146610;580;47010;-69
2022/05/14 10:56:21;;;;;;;;;10.00;9.50;;;;;27.71;34.92;100931.78;146608;579;46012;-69
2022/05/14 10:59:17;;;;;;;;;8.75;8.00;;;;;27.72;33.92;100937.06;146616;612;46021;-69
2022/05/14 11:02:17;;;;;;;;;10.00;9.00;;;;;27.82;34.36;100929.81;146614;709;47012;-68
2022/05/14 11:05:09;;;;;;;;;10.25;9.75;;;;;28.04;34.31;100933.91;146619;685;47020;-69
2022/05/14 11:08:15;;;;;;;;;8.50;7.00;;;;;28.27;32.79;100924.59;146615;616;46017;-68
2022/05/14 11:11:31;;;;;;;;;8.00;7.75;;;;;28.48;31.57;100924.22;146618;609;47020;-69
2022/05/14 11:14:23;;;;;;;;;10.00;10.00;;;;;28.51;32.20;100915.28;146612;680;47016;-69
2022/05/14 11:17:56;;;;;;;;;10.25;9.75;;;;;28.49;31.86;100919.78;146612;644;46012;-68
2022/05/14 11:21:05;;;;;;;;;7.67;6.33;;;;;28.36;28.68;100916.44;146615;584;46914;-68
2022/05/14 11:24:03;;;;;;;;;9.00;8.75;;;;;28.30;30.13;100909.41;146619;635;46020;-70
2022/05/14 11:27:02;;;;;;;;;9.50;9.00;;;;;28.29;28.90;100905.00;146615;598;46016;-70
2022/05/14 11:30:10;;;;;;;;;9.00;8.00;;;;;28.31;30.03;100908.50;146618;654;46021;-69
2022/05/14 11:33:03;;;;;;;;;11.50;9.00;;;;;28.30;29.86;100906.75;146616;664;46014;-68
2022/05/14 11:36:08;;;;;;;;;9.00;8.50;;;;;28.38;32.81;100906.62;146614;571;46021;-69
2022/05/14 11:39:56;;;;;;;;;11.75;11.75;;;;;28.54;31.47;100901.91;146612;649;46016;-69
2022/05/14 11:43:14;;;;;;;;;11.00;11.00;;;;;28.76;31.08;100891.66;146609;671;48012;-68
2022/05/14 11:46:57;;;;;;;;;11.00;10.25;;;;;28.83;34.39;100887.94;146610;563;46019;-69
2022/05/14 11:50:04;;;;;;;;;10.25;8.75;;;;;28.84;33.32;100884.34;146613;566;46020;-68
2022/05/14 11:53:58;;;;;;;;;9.50;9.50;;;;;28.89;32.86;100881.59;146619;651;46012;-70
2022/05/14 11:57:19;;;;;;;;;9.75;9.00;;;;;28.73;29.69;100881.03;146614;649;47010;-69
2022/05/14 12:00:22;;;;;;;;;11.50;10.25;;;;;28.66;29.65;100876.72;146609;573;54014;-69
2022/05/14 12:03:59;;;;;;;;;9.50;8.75;;;;;28.64;32.29;100882.13;146613;644;46010;-69
2022/05/14 12:11:56;;;;;;;;;7.25;7.25;;;;;28.71;31.62;100874.84;146621;586;46010;-68
2022/05/14 12:15:08;;;;;;;;;9.00;8.25;;;;;28.81;33.88;100875.53;146604;574;54010;-68
2022/05/14 12:18:03;;;;;;;;;9.25;9.25;;;;;28.90;34.75;100875.34;146618;622;46010;-71
2022/05/14 12:21:04;;;;;;;;;12.00;10.25;;;;;28.93;34.77;100886.81;146617;614;46030;-70
2022/05/14 12:23:55;;;;;;;;;11.25;10.25;;;;;28.91;34.09;100879.75;146616;566;45020;-68
2022/05/14 12:26:48;;;;;;;;;10.50;9.25;;;;;28.83;34.30;100871.91;146613;654;46016;-69
2022/05/14 12:29:40;;;;;;;;;8.75;7.50;;;;;28.71;32.71;100865.06;146618;616;46010;-69
2022/05/14 12:35:56;;;;;;;;;9.75;9.00;;;;;28.67;36.82;100858.03;146620;575;46021;-69
2022/05/14 12:38:48;;;;;;;;;10.00;10.00;;;;;28.60;36.96;100850.19;146618;569;46012;-70
2022/05/14 12:41:42;;;;;;;;;11.00;9.75;;;;;28.50;33.85;100857.50;146615;564;46010;-70
2022/05/14 12:44:39;;;;;;;;;8.00;8.00;;;;;28.50;34.03;100852.16;146616;628;46914;-70
2022/05/14 12:47:37;;;;;;;;;10.25;10.00;;;;;28.48;35.99;100840.66;146623;669;46010;-70
2022/05/14 12:50:33;;;;;;;;;9.00;8.75;;;;;28.46;35.13;100851.34;146611;598;46017;-71
2022/05/14 12:53:38;;;;;;;;;8.50;8.00;;;;;28.44;36.98;100839.84;146623;659;46010;-70
2022/05/14 12:56:34;;;;;;;;;12.00;10.75;;;;;28.44;37.16;100837.19;146616;609;47012;-69
2022/05/14 12:59:27;;;;;;;;;10.25;10.25;;;;;28.39;36.50;100843.50;146614;600;46020;-70
2022/05/14 13:02:36;;;;;;;;;9.00;9.00;;;;;28.27;38.17;100833.94;146610;619;46016;-70
2022/05/14 13:05:40;;;;;;;;;9.50;9.50;;;;;28.05;35.93;100838.81;146618;564;47011;-70
2022/05/14 13:08:33;;;;;;;;;13.00;13.00;;;;;27.78;36.64;100837.53;146617;605;46016;-69
2022/05/14 13:11:31;;;;;;;;;11.00;10.75;;;;;27.60;38.80;100834.28;146614;651;47010;-69
2022/05/14 13:14:37;;;;;;;;;10.25;9.00;;;;;27.48;38.94;100830.94;146612;721;46016;-69
2022/05/14 13:17:41;;;;;;;;;15.25;10.75;;;;;27.36;39.17;100829.34;146622;609;46020;-69
2022/05/14 13:20:34;;;;;;;;;11.50;7.75;;;;;27.28;38.89;100831.25;146612;601;47012;-70
2022/05/14 13:23:26;;;;;;;;;13.00;13.00;;;;;27.25;38.79;100832.16;146619;579;46020;-69
2022/05/14 13:26:30;;;;;;;;;13.75;12.75;;;;;27.30;39.08;100818.81;146612;611;46012;-69
2022/05/14 13:29:34;;;;;;;;;9.75;8.00;;;;;27.40;36.34;100825.72;146616;570;46010;-70
2022/05/14 13:32:32;;;;;;;;;10.75;9.00;;;;;27.42;36.79;100823.94;146616;575;46913;-70
2022/05/14 13:39:08;;;;;;;;;8.75;8.75;;;;;27.29;35.59;100823.25;146616;717;46016;-69
2022/05/14 13:42:00;;;;;;;;;10.75;10.75;;;;;27.27;35.14;100818.84;146621;587;46021;-69
2022/05/14 13:44:58;;;;;;;;;10.00;9.00;;;;;27.35;38.05;100819.59;146612;600;46016;-68
2022/05/14 13:47:58;;;;;;;;;12.00;12.00;;;;;27.51;39.51;100815.78;146618;597;46020;-70
2022/05/14 13:51:01;;;;;;;;;9.75;9.75;;;;;27.68;39.14;100815.47;146612;723;46014;-71
2022/05/14 13:54:09;;;;;;;;;13.25;13.25;;;;;27.72;39.43;100818.97;146621;575;46020;-69
2022/05/14 13:57:28;;;;;;;;;9.75;9.75;;;;;27.70;39.17;100815.47;146612;578;46017;-69
2022/05/14 14:00:26;;;;;;;;;11.00;11.00;;;;;27.72;39.37;100810.97;146619;574;46010;-69
2022/05/14 14:03:23;;;;;;;;;12.25;10.00;;;;;27.78;39.91;100819.75;146613;667;46016;-69
2022/05/14 14:06:16;;;;;;;;;12.25;12.25;;;;;27.79;39.26;100821.53;146615;599;46020;-69
2022/05/14 14:09:10;;;;;;;;;11.50;11.50;;;;;27.79;39.64;100815.34;146610;569;46913;-69
2022/05/14 14:12:02;;;;;;;;;11.00;10.25;;;;;27.80;38.51;100814.41;146614;672;46021;-68
2022/05/14 14:14:55;;;;;;;;;10.25;10.00;;;;;27.79;39.88;100810.88;146612;653;46014;-68
2022/05/14 14:17:52;;;;;;;;;11.00;9.75;;;;;27.78;37.70;100797.56;146616;578;46010;-69
2022/05/14 14:20:49;;;;;;;;;9.50;9.50;;;;;27.73;38.54;100802.09;146617;649;46016;-70
2022/05/14 14:23:45;;;;;;;;;12.25;11.25;;;;;27.62;39.27;100794.28;146622;656;46010;-70
2022/05/14 14:26:38;;;;;;;;;10.75;9.75;;;;;27.52;40.44;100804.22;146611;648;46013;-69
2022/05/14 14:29:30;;;;;;;;;13.50;13.50;;;;;27.49;39.66;100803.41;146615;660;46020;-69
2022/05/14 14:32:22;;;;;;;;;10.00;10.00;;;;;27.46;39.27;100801.66;146611;621;46014;-72
2022/05/14 14:35:14;;;;;;;;;11.00;10.00;;;;;27.39;40.60;100805.34;146614;654;46021;-69
2022/05/14 14:38:08;;;;;;;;;12.00;12.00;;;;;27.24;39.56;100798.47;146612;618;46016;-71